Time;durP1;ratioP1;P1;durP2;ratioP2;P2;SDS_P1;SDS_P2;PMS_P1;PMS_P2;Temp;Humidity;BMP_temperature;BMP_pressure;BME280_temperature;BME280_humidity;BME280_pressure;Samples;Min_cycle;Max_cycle;Signal;HPM_P1;HPM_P2
2021/10/10 00:01:05;;;;;;;21.80;14.68;;;7.10;26.60;;;;;;5078172;28;20070;-67
2021/10/10 00:03:33;;;;;;;23.10;14.60;;;7.00;26.70;;;;;;5067806;28;20040;-66
2021/10/10 00:06:03;;;;;;;23.77;14.32;;;7.00;26.90;;;;;;5084775;28;20126;-67
2021/10/10 00:08:38;;;;;;;22.05;13.43;;;7.10;26.90;;;;;;5072925;28;20048;-67
2021/10/10 00:11:14;;;;;;;20.27;12.70;;;7.00;26.80;;;;;;5081936;28;20045;-69
2021/10/10 00:13:42;;;;;;;21.60;13.60;;;7.00;26.40;;;;;;5081342;28;20105;-68
2021/10/10 00:16:13;;;;;;;19.48;12.63;;;7.00;26.70;;;;;;5075983;28;20055;-68
2021/10/10 00:18:46;;;;;;;19.10;12.43;;;7.00;26.80;;;;;;5083941;28;20061;-68
2021/10/10 00:21:16;;;;;;;19.98;13.23;;;7.00;26.60;;;;;;5083076;28;20079;-68
2021/10/10 00:23:46;;;;;;;24.17;12.85;;;6.90;27.00;;;;;;5072548;28;20048;-67
2021/10/10 00:26:15;;;;;;;20.05;12.63;;;6.80;27.60;;;;;;5079706;28;20045;-67
2021/10/10 00:28:46;;;;;;;18.75;12.55;;;6.80;28.20;;;;;;5074432;28;20090;-67
2021/10/10 00:31:18;;;;;;;17.83;12.50;;;6.80;28.00;;;;;;5074706;28;20094;-68
2021/10/10 00:33:46;;;;;;;19.98;12.68;;;6.90;27.60;;;;;;5077631;28;20044;-69
2021/10/10 00:36:20;;;;;;;20.27;12.88;;;6.90;26.10;;;;;;5076301;28;20067;-67
2021/10/10 00:38:52;;;;;;;19.70;11.82;;;6.90;25.60;;;;;;5063405;28;20128;-68
2021/10/10 00:41:27;;;;;;;18.33;12.73;;;6.80;25.50;;;;;;5084142;28;20567;-68
2021/10/10 00:43:55;;;;;;;23.35;13.30;;;6.80;25.50;;;;;;5075670;28;20684;-68
2021/10/10 00:46:24;;;;;;;21.77;13.57;;;6.70;25.90;;;;;;5074991;28;20043;-68
2021/10/10 00:48:53;;;;;;;18.83;12.48;;;6.70;26.30;;;;;;5064748;28;20036;-66
2021/10/10 00:51:24;;;;;;;18.52;12.75;;;6.60;26.60;;;;;;5060656;28;20799;-67
2021/10/10 00:53:55;;;;;;;20.90;12.50;;;6.60;26.60;;;;;;5073397;28;20041;-68
2021/10/10 00:56:24;;;;;;;22.05;13.32;;;6.60;27.10;;;;;;5082332;28;20040;-67
2021/10/10 00:58:55;;;;;;;22.15;13.93;;;6.60;27.40;;;;;;5076279;28;20058;-67
2021/10/10 01:01:27;;;;;;;20.35;14.18;;;6.50;27.40;;;;;;5076609;28;20052;-67
2021/10/10 01:03:56;;;;;;;19.88;12.27;;;6.50;27.40;;;;;;5079324;28;20063;-67
2021/10/10 01:06:27;;;;;;;20.25;12.55;;;6.50;27.80;;;;;;5078058;28;20043;-67
2021/10/10 01:08:56;;;;;;;23.17;14.13;;;6.50;28.00;;;;;;5075329;28;20043;-67
2021/10/10 01:11:27;;;;;;;19.02;13.40;;;6.50;28.30;;;;;;5075415;28;20048;-66
2021/10/10 01:13:58;;;;;;;23.00;14.32;;;6.40;28.10;;;;;;5080781;28;20052;-67
2021/10/10 01:16:26;;;;;;;20.35;12.68;;;6.40;28.50;;;;;;5078937;28;20074;-66
2021/10/10 01:18:56;;;;;;;18.63;13.18;;;6.40;29.00;;;;;;5075847;28;20028;-67
2021/10/10 01:21:30;;;;;;;20.48;14.38;;;6.40;29.50;;;;;;5077095;28;20126;-67
2021/10/10 01:23:59;;;;;;;19.55;13.65;;;6.40;29.00;;;;;;5075432;28;20052;-67
2021/10/10 01:26:30;;;;;;;17.73;12.82;;;6.40;28.70;;;;;;5075428;28;20045;-67
2021/10/10 01:28:58;;;;;;;23.40;13.55;;;6.40;28.90;;;;;;5080266;28;20574;-66
2021/10/10 01:31:33;;;;;;;23.75;12.55;;;6.40;29.30;;;;;;5076044;28;20040;-66
2021/10/10 01:34:03;;;;;;;19.90;12.80;;;6.40;29.90;;;;;;5075535;28;20037;-67
2021/10/10 01:36:35;;;;;;;17.75;12.20;;;6.30;29.60;;;;;;5052416;28;20045;-67
2021/10/10 01:39:03;;;;;;;18.42;12.38;;;6.30;30.00;;;;;;5064790;28;20129;-67
2021/10/10 01:41:33;;;;;;;21.65;12.88;;;6.30;30.00;;;;;;5078019;28;20059;-67
2021/10/10 01:44:01;;;;;;;21.52;12.32;;;6.30;29.90;;;;;;5083924;28;20040;-68
2021/10/10 01:46:30;;;;;;;19.77;12.60;;;6.30;29.70;;;;;;5080106;28;20561;-67
2021/10/10 01:48:58;;;;;;;18.90;12.10;;;6.20;30.00;;;;;;5080193;28;20571;-68
2021/10/10 01:51:27;;;;;;;19.55;12.68;;;6.20;30.60;;;;;;5085501;28;20067;-68
2021/10/10 01:53:56;;;;;;;17.02;11.75;;;6.10;30.70;;;;;;5073321;28;20577;-67
2021/10/10 01:56:27;;;;;;;21.50;12.82;;;6.10;31.20;;;;;;5085666;28;20092;-68
2021/10/10 01:58:56;;;;;;;20.23;13.07;;;6.10;31.30;;;;;;5081068;28;20420;-68
2021/10/10 02:01:26;;;;;;;22.65;13.23;;;6.00;31.20;;;;;;5080442;28;20085;-68
2021/10/10 02:03:59;;;;;;;20.20;13.85;;;6.00;31.50;;;;;;5079622;28;20040;-67
2021/10/10 02:06:28;;;;;;;20.23;12.65;;;6.00;31.50;;;;;;5085657;28;20105;-68
2021/10/10 02:09:00;;;;;;;20.65;13.82;;;5.90;31.70;;;;;;5074291;28;20051;-67
2021/10/10 02:11:28;;;;;;;19.80;13.48;;;5.90;31.70;;;;;;5083706;28;20048;-68
2021/10/10 02:13:56;;;;;;;20.70;13.00;;;5.80;31.90;;;;;;5084293;28;20129;-68
2021/10/10 02:16:28;;;;;;;19.27;12.93;;;5.80;33.00;;;;;;5074336;28;20491;-66
2021/10/10 02:19:00;;;;;;;17.90;12.60;;;5.90;33.50;;;;;;5073926;28;20576;-67
2021/10/10 02:21:29;;;;;;;19.25;12.98;;;5.90;32.80;;;;;;5072606;28;20040;-68
2021/10/10 02:24:04;;;;;;;24.33;13.48;;;5.90;32.50;;;;;;5068270;28;20119;-67
2021/10/10 02:26:37;;;;;;;21.48;12.88;;;5.80;32.50;;;;;;5080713;28;20048;-68
2021/10/10 02:29:10;;;;;;;19.75;13.40;;;5.80;32.90;;;;;;5083340;28;20044;-68
2021/10/10 02:31:42;;;;;;;18.88;12.55;;;5.80;32.70;;;;;;5081720;28;20044;-67
2021/10/10 02:34:11;;;;;;;22.77;12.82;;;5.70;34.30;;;;;;5080959;28;20055;-68
2021/10/10 02:36:41;;;;;;;19.98;12.95;;;5.90;32.30;;;;;;5059745;28;20052;-68
2021/10/10 02:39:14;;;;;;;26.08;15.23;;;5.90;30.30;;;;;;5082505;28;20051;-66
2021/10/10 02:41:42;;;;;;;21.67;14.75;;;5.70;33.50;;;;;;5091542;28;20086;-67
2021/10/10 02:44:14;;;;;;;25.13;15.95;;;5.60;34.30;;;;;;5085115;28;20564;-66
2021/10/10 02:46:45;;;;;;;29.27;15.57;;;5.50;35.40;;;;;;5084784;28;20040;-66
2021/10/10 02:49:14;;;;;;;26.08;16.20;;;5.50;36.00;;;;;;5082860;28;20048;-67
2021/10/10 02:51:45;;;;;;;22.15;15.95;;;5.40;36.70;;;;;;5084493;28;20119;-67
2021/10/10 02:54:15;;;;;;;25.35;16.85;;;5.40;36.40;;;;;;5082659;28;20050;-67
2021/10/10 02:56:44;;;;;;;22.77;14.45;;;5.40;36.60;;;;;;5090596;28;20123;-67
2021/10/10 02:59:15;;;;;;;23.10;15.45;;;5.40;36.50;;;;;;5088913;28;20510;-67
2021/10/10 03:01:44;;;;;;;23.83;15.90;;;5.30;36.80;;;;;;5087294;28;20048;-67
2021/10/10 03:04:12;;;;;;;21.23;14.50;;;5.30;37.00;;;;;;5085216;28;20048;-67
2021/10/10 03:06:40;;;;;;;23.30;14.77;;;5.30;36.60;;;;;;5087673;28;20075;-67
2021/10/10 03:09:10;;;;;;;22.27;14.38;;;5.30;36.60;;;;;;5085852;28;20032;-67
2021/10/10 03:11:43;;;;;;;25.40;15.10;;;5.20;36.60;;;;;;5087184;28;20044;-67
2021/10/10 03:14:14;;;;;;;23.90;16.08;;;5.30;37.70;;;;;;5079744;28;20055;-66
2021/10/10 03:16:42;;;;;;;24.48;15.02;;;5.30;36.20;;;;;;5080131;28;20048;-66
2021/10/10 03:19:12;;;;;;;23.88;15.27;;;5.20;36.80;;;;;;5084422;28;20032;-66
2021/10/10 03:21:43;;;;;;;28.75;15.95;;;5.20;36.80;;;;;;5092005;28;20401;-67
2021/10/10 03:24:11;;;;;;;23.35;15.15;;;5.20;36.80;;;;;;5084139;28;20045;-67
2021/10/10 03:26:40;;;;;;;23.77;15.63;;;5.10;36.90;;;;;;5079888;28;20062;-67
2021/10/10 03:29:09;;;;;;;24.10;15.25;;;5.10;37.30;;;;;;5078363;28;20047;-66
2021/10/10 03:31:39;;;;;;;21.85;14.95;;;5.10;37.60;;;;;;5078159;28;20044;-66
2021/10/10 03:34:09;;;;;;;23.75;15.35;;;5.00;37.10;;;;;;5078301;28;20051;-67
2021/10/10 03:36:37;;;;;;;22.10;15.32;;;5.10;38.10;;;;;;5079414;28;20036;-66
2021/10/10 03:39:09;;;;;;;25.75;16.70;;;5.10;38.00;;;;;;5077868;28;20035;-67
2021/10/10 03:41:37;;;;;;;21.73;15.10;;;5.00;37.90;;;;;;5077947;28;20076;-66
2021/10/10 03:44:05;;;;;;;28.30;16.63;;;5.00;37.60;;;;;;5077402;28;20494;-67
2021/10/10 03:46:35;;;;;;;28.98;16.13;;;5.00;38.00;;;;;;5076412;28;20048;-67
2021/10/10 03:49:04;;;;;;;24.33;15.32;;;5.00;37.90;;;;;;5077300;28;20442;-68
2021/10/10 03:51:33;;;;;;;25.75;15.85;;;4.90;37.80;;;;;;5071583;28;20056;-67
2021/10/10 03:56:56;;;;;;;24.45;15.13;;;5.00;38.10;;;;;;5082233;28;20047;-68
2021/10/10 03:59:24;;;;;;;21.05;14.77;;;5.00;38.10;;;;;;5083481;28;20039;-67
2021/10/10 04:02:03;;;;;;;20.92;14.43;;;5.00;38.00;;;;;;5075924;28;20077;-67
2021/10/10 04:04:35;;;;;;;24.25;16.05;;;4.90;37.60;;;;;;5081101;28;20048;-67
2021/10/10 04:07:08;;;;;;;22.35;14.52;;;4.80;37.60;;;;;;5050785;28;20098;-67
2021/10/10 04:09:36;;;;;;;23.48;15.75;;;4.80;38.10;;;;;;5075245;28;20131;-67
2021/10/10 04:12:09;;;;;;;25.63;15.52;;;4.90;38.40;;;;;;5079842;28;20051;-67
2021/10/10 04:14:37;;;;;;;26.55;16.08;;;4.90;38.30;;;;;;5079423;28;20136;-67
2021/10/10 04:17:07;;;;;;;22.77;14.07;;;4.90;38.00;;;;;;5074422;28;20405;-66
2021/10/10 04:19:36;;;;;;;22.02;14.40;;;4.90;38.00;;;;;;5083180;28;20044;-67
2021/10/10 04:22:05;;;;;;;22.42;14.23;;;4.80;38.00;;;;;;5075308;28;20051;-67
2021/10/10 04:24:34;;;;;;;24.10;15.43;;;4.80;38.20;;;;;;5075668;28;20051;-68
2021/10/10 04:27:03;;;;;;;23.48;14.57;;;4.80;37.70;;;;;;5082921;28;20059;-67
2021/10/10 04:29:36;;;;;;;24.88;14.88;;;4.70;37.90;;;;;;5074829;28;20505;-67
2021/10/10 04:32:08;;;;;;;20.17;14.02;;;4.60;38.50;;;;;;5076865;28;20055;-67
2021/10/10 04:34:36;;;;;;;20.08;13.98;;;4.60;38.30;;;;;;5078955;28;20147;-67
2021/10/10 04:37:07;;;;;;;23.73;14.85;;;4.60;38.40;;;;;;5071992;28;20056;-67
2021/10/10 04:39:38;;;;;;;22.33;15.27;;;4.60;38.90;;;;;;5083707;28;20059;-67
2021/10/10 04:42:10;;;;;;;22.52;15.13;;;4.50;38.10;;;;;;5081684;28;20044;-67
2021/10/10 04:44:38;;;;;;;19.20;13.40;;;4.50;39.10;;;;;;5082636;28;20412;-67
2021/10/10 04:47:11;;;;;;;23.67;15.07;;;4.50;38.90;;;;;;5072639;28;20458;-67
2021/10/10 04:49:40;;;;;;;23.77;14.45;;;4.50;39.60;;;;;;5084349;28;20052;-67
2021/10/10 04:52:09;;;;;;;24.23;15.15;;;4.50;39.60;;;;;;5070179;28;20051;-67
2021/10/10 04:54:40;;;;;;;25.77;15.55;;;4.40;39.90;;;;;;5075659;28;20052;-67
2021/10/10 04:57:08;;;;;;;21.10;14.70;;;4.50;40.10;;;;;;5082556;28;20052;-67
2021/10/10 04:59:40;;;;;;;24.65;14.85;;;4.50;40.00;;;;;;5073674;28;20040;-67
2021/10/10 05:02:10;;;;;;;21.00;14.05;;;4.40;39.80;;;;;;5082056;28;20052;-67
2021/10/10 05:04:38;;;;;;;22.63;14.18;;;4.50;40.00;;;;;;5081539;28;20036;-67
2021/10/10 05:07:11;;;;;;;24.02;15.77;;;4.50;40.00;;;;;;5066704;28;20041;-67
2021/10/10 05:09:39;;;;;;;23.85;15.10;;;4.40;39.80;;;;;;5078617;28;20071;-67
2021/10/10 05:12:12;;;;;;;21.83;14.77;;;4.40;39.90;;;;;;5076882;28;20499;-67
2021/10/10 05:14:41;;;;;;;25.05;14.90;;;4.40;40.30;;;;;;5073298;28;20048;-67
2021/10/10 05:17:13;;;;;;;22.92;15.15;;;4.40;40.50;;;;;;5084160;28;20039;-67
2021/10/10 05:19:41;;;;;;;26.40;15.45;;;4.40;40.30;;;;;;5084691;28;20036;-67
2021/10/10 05:22:14;;;;;;;22.65;14.80;;;4.40;40.50;;;;;;5083104;28;20053;-67
2021/10/10 05:24:42;;;;;;;23.63;14.98;;;4.40;40.40;;;;;;5082865;28;20040;-67
2021/10/10 05:27:12;;;;;;;21.92;14.82;;;4.40;41.00;;;;;;5086557;28;20135;-66
2021/10/10 05:29:43;;;;;;;23.30;14.65;;;4.40;41.00;;;;;;5078613;28;20136;-65
2021/10/10 05:32:14;;;;;;;21.77;14.45;;;4.40;41.00;;;;;;5088370;28;20131;-67
2021/10/10 05:34:43;;;;;;;22.00;14.95;;;4.40;40.80;;;;;;5079388;28;20700;-67
2021/10/10 05:37:14;;;;;;;22.25;14.77;;;4.30;40.60;;;;;;5077576;28;20057;-66
2021/10/10 05:39:44;;;;;;;24.70;15.15;;;4.40;41.30;;;;;;5079162;28;20158;-66
2021/10/10 05:42:12;;;;;;;21.95;15.20;;;4.40;41.00;;;;;;5093254;28;20048;-67
2021/10/10 05:44:40;;;;;;;25.17;15.23;;;4.40;41.40;;;;;;5079820;28;20047;-67
2021/10/10 05:47:11;;;;;;;21.98;15.02;;;4.40;41.50;;;;;;5085349;28;20047;-67
2021/10/10 05:49:43;;;;;;;22.48;15.27;;;4.40;41.10;;;;;;5078420;28;20148;-68
2021/10/10 05:52:21;;;;;;;21.63;14.55;;;4.40;40.90;;;;;;5082411;28;20570;-66
2021/10/10 05:54:53;;;;;;;24.98;14.73;;;4.40;40.50;;;;;;5082586;28;20047;-65
2021/10/10 05:57:24;;;;;;;21.40;14.00;;;4.40;40.00;;;;;;5079209;28;20048;-68
2021/10/10 05:59:56;;;;;;;24.13;15.38;;;4.40;40.00;;;;;;5082795;28;20127;-67
2021/10/10 06:02:25;;;;;;;21.55;15.05;;;4.50;39.50;;;;;;5087522;28;20051;-66
2021/10/10 06:04:57;;;;;;;22.20;14.88;;;4.50;40.00;;;;;;5077036;28;20048;-66
2021/10/10 06:07:25;;;;;;;21.58;15.02;;;4.40;38.70;;;;;;5079192;28;20131;-66
2021/10/10 06:09:59;;;;;;;21.65;14.55;;;4.40;39.90;;;;;;5084022;28;20072;-67
2021/10/10 06:12:33;;;;;;;25.30;16.15;;;4.50;40.40;;;;;;5079694;28;20570;-67
2021/10/10 06:15:04;;;;;;;21.88;16.40;;;4.50;40.40;;;;;;5081977;28;20047;-68
2021/10/10 06:17:32;;;;;;;25.33;16.40;;;4.60;40.60;;;;;;5078175;28;20041;-67
2021/10/10 06:20:05;;;;;;;23.70;16.08;;;4.60;40.20;;;;;;5077789;28;20052;-67
2021/10/10 06:22:36;;;;;;;23.42;16.17;;;4.60;39.90;;;;;;5086398;28;20063;-67
2021/10/10 06:25:06;;;;;;;25.20;15.98;;;4.70;39.70;;;;;;5079261;28;20064;-66
2021/10/10 06:27:40;;;;;;;22.95;15.45;;;4.70;39.10;;;;;;5079315;28;20063;-67
2021/10/10 06:30:09;;;;;;;21.90;14.93;;;4.80;39.10;;;;;;5084095;28;20122;-66
2021/10/10 06:32:39;;;;;;;23.15;15.23;;;4.80;38.80;;;;;;5074091;28;20082;-66
2021/10/10 06:35:10;;;;;;;21.67;14.65;;;4.90;38.40;;;;;;5079791;28;20068;-66
2021/10/10 06:37:38;;;;;;;22.45;15.48;;;5.00;38.00;;;;;;5084499;28;20132;-67
2021/10/10 06:40:07;;;;;;;25.73;15.75;;;5.10;37.30;;;;;;5075603;28;20511;-66
2021/10/10 06:42:36;;;;;;;25.42;15.77;;;5.20;36.00;;;;;;5083076;28;20072;-67
2021/10/10 06:45:08;;;;;;;25.60;14.93;;;5.30;34.90;;;;;;5078128;28;20076;-67
2021/10/10 06:47:40;;;;;;;23.98;15.23;;;5.40;34.30;;;;;;5075468;28;20628;-67
2021/10/10 06:50:11;;;;;;;23.65;14.52;;;5.50;34.30;;;;;;5090324;28;20040;-67
2021/10/10 06:52:39;;;;;;;24.55;15.15;;;5.50;33.60;;;;;;5081860;28;20068;-67
2021/10/10 06:55:09;;;;;;;23.65;15.07;;;5.60;32.50;;;;;;5077042;28;20060;-67
2021/10/10 06:57:37;;;;;;;27.58;14.52;;;5.60;31.00;;;;;;5084903;28;20762;-67
2021/10/10 07:00:07;;;;;;;23.88;14.02;;;5.70;31.30;;;;;;5082216;28;20050;-67
2021/10/10 07:02:41;;;;;;;25.00;14.90;;;5.80;30.70;;;;;;5076795;28;20045;-67
2021/10/10 07:05:12;;;;;;;21.13;14.32;;;5.90;30.30;;;;;;5080497;28;20048;-67
2021/10/10 07:07:42;;;;;;;22.40;14.15;;;6.10;29.70;;;;;;5077607;28;20511;-67
2021/10/10 07:10:11;;;;;;;22.83;14.48;;;6.20;28.30;;;;;;5079236;28;20044;-68
2021/10/10 07:12:42;;;;;;;20.98;13.48;;;6.30;27.20;;;;;;5079138;28;20478;-66
2021/10/10 07:15:14;;;;;;;21.17;13.50;;;6.40;27.30;;;;;;5078579;28;20044;-67
2021/10/10 07:17:42;;;;;;;19.30;13.65;;;6.60;26.30;;;;;;5079148;28;20119;-67
2021/10/10 07:20:14;;;;;;;22.85;14.27;;;6.60;25.70;;;;;;5085317;27;20166;-67
2021/10/10 07:22:57;;;;;;;19.33;13.63;;;6.70;25.40;;;;;;5077882;28;20098;-66
2021/10/10 07:25:27;;;;;;;;;;;6.80;23.80;;;;;;5080320;28;20036;-67
2021/10/10 07:27:59;;;;;;;22.40;14.65;;;6.90;23.10;;;;;;5082612;28;19920;-67
2021/10/10 07:30:32;;;;;;;22.92;13.90;;;6.90;22.00;;;;;;5081553;28;20082;-66
2021/10/10 07:33:00;;;;;;;22.45;12.88;;;7.00;21.70;;;;;;5079122;28;20052;-67
2021/10/10 07:35:33;;;;;;;18.50;14.07;;;7.10;21.30;;;;;;5082866;28;20044;-68
2021/10/10 07:38:01;;;;;;;19.90;13.55;;;7.10;21.00;;;;;;5078141;28;20052;-67
2021/10/10 07:40:33;;;;;;;20.20;13.55;;;7.30;20.40;;;;;;5076838;28;20499;-67
2021/10/10 07:43:02;;;;;;;23.00;14.45;;;7.30;20.50;;;;;;5082858;28;20044;-67
2021/10/10 07:45:31;;;;;;;19.63;13.85;;;7.40;19.20;;;;;;5078091;28;20075;-68
2021/10/10 07:48:03;;;;;;;21.42;13.52;;;7.30;17.60;;;;;;5079825;28;20075;-67
2021/10/10 07:50:41;;;;;;;30.08;14.43;;;7.50;18.60;;;;;;5083067;28;20135;-68
2021/10/10 07:53:12;;;;;;;19.33;13.10;;;7.60;17.70;;;;;;5076325;28;20079;-68
2021/10/10 07:55:40;;;;;;;19.58;13.25;;;7.50;19.00;;;;;;5081860;28;20122;-67
2021/10/10 07:58:12;;;;;;;21.40;13.02;;;7.80;16.70;;;;;;5080309;28;20526;-67
2021/10/10 08:00:41;;;;;;;19.83;13.23;;;7.90;15.00;;;;;;5073958;28;20400;-66
2021/10/10 08:03:09;;;;;;;21.30;13.63;;;8.10;13.70;;;;;;5084682;28;20043;-67
2021/10/10 08:05:42;;;;;;;21.95;13.85;;;8.10;13.90;;;;;;5078144;28;20032;-67
2021/10/10 08:08:14;;;;;;;19.52;12.88;;;8.30;12.70;;;;;;5077542;28;20043;-68
2021/10/10 08:10:45;;;;;;;20.25;13.25;;;8.50;11.20;;;;;;5082085;28;20132;-67
2021/10/10 08:13:14;;;;;;;21.33;13.55;;;8.40;11.00;;;;;;5080278;28;20048;-67
2021/10/10 08:15:47;;;;;;;23.98;14.15;;;8.50;9.90;;;;;;5075583;28;20090;-68
2021/10/10 08:18:19;;;;;;;23.80;13.55;;;8.70;9.30;;;;;;5083893;28;20047;-67
2021/10/10 08:20:51;;;;;;;18.77;13.75;;;8.70;8.60;;;;;;5077080;28;20140;-69
2021/10/10 08:23:25;;;;;;;20.15;13.48;;;8.70;9.90;;;;;;5074363;28;20039;-67
2021/10/10 08:25:53;;;;;;;20.75;13.32;;;8.70;9.50;;;;;;5079168;28;20159;-68
2021/10/10 08:28:21;;;;;;;19.30;13.23;;;8.90;10.50;;;;;;5073374;28;20040;-67
2021/10/10 08:30:50;;;;;;;22.98;14.02;;;8.80;9.20;;;;;;5081388;28;20036;-67
2021/10/10 08:33:20;;;;;;;25.65;14.02;;;9.10;9.10;;;;;;5083709;28;20483;-68
2021/10/10 08:35:51;;;;;;;22.17;13.43;;;9.30;8.10;;;;;;5074004;28;20356;-68
2021/10/10 08:38:23;;;;;;;22.80;13.27;;;9.50;4.50;;;;;;5081703;28;20044;-67
2021/10/10 08:40:54;;;;;;;19.83;13.70;;;9.60;1.00;;;;;;5075917;28;20055;-68
2021/10/10 08:43:25;;;;;;;22.60;13.50;;;9.50;1.00;;;;;;5072538;28;20041;-68
2021/10/10 08:45:54;;;;;;;22.38;13.10;;;9.40;1.00;;;;;;5079168;28;20078;-67
2021/10/10 08:48:26;;;;;;;19.85;13.90;;;9.50;1.00;;;;;;5078424;28;20046;-68
2021/10/10 08:50:59;;;;;;;23.67;13.07;;;9.80;1.00;;;;;;5077164;28;20075;-67
2021/10/10 08:53:27;;;;;;;21.50;13.57;;;9.90;1.00;;;;;;5073513;28;20124;-67
2021/10/10 08:55:59;;;;;;;23.42;13.43;;;9.80;1.00;;;;;;5082943;28;20100;-68
2021/10/10 08:58:35;;;;;;;21.77;12.82;;;10.10;1.00;;;;;;5071468;28;20508;-68
2021/10/10 09:01:11;;;;;;;20.27;14.15;;;10.00;1.00;;;;;;5076047;28;20043;-67
2021/10/10 09:03:40;;;;;;;19.02;13.38;;;9.80;1.00;;;;;;5077378;28;20071;-67
2021/10/10 09:06:13;;;;;;;23.27;13.63;;;9.80;1.00;;;;;;5077660;28;20050;-67
2021/10/10 09:08:41;;;;;;;23.25;14.18;;;10.00;1.00;;;;;;5077920;28;20044;-68
2021/10/10 09:11:15;;;;;;;26.20;14.70;;;10.20;1.00;;;;;;5076465;28;20522;-68
2021/10/10 09:13:47;;;;;;;22.40;13.60;;;10.30;1.00;;;;;;5071321;28;20052;-67
2021/10/10 09:16:15;;;;;;;23.48;14.20;;;10.20;1.00;;;;;;5079179;28;20147;-67
2021/10/10 09:18:46;;;;;;;22.98;14.27;;;10.50;1.00;;;;;;5073902;28;20044;-66
2021/10/10 09:21:18;;;;;;;26.55;15.02;;;10.70;1.00;;;;;;5078103;28;20044;-69
2021/10/10 09:23:54;;;;;;;23.75;14.63;;;10.50;1.00;;;;;;5080249;28;20040;-67
2021/10/10 09:26:25;;;;;;;20.48;13.32;;;10.70;1.00;;;;;;5077443;28;20052;-68
2021/10/10 09:28:55;;;;;;;20.55;13.80;;;10.80;1.00;;;;;;5077619;28;20048;-68
2021/10/10 09:31:27;;;;;;;18.40;13.15;;;10.80;1.00;;;;;;5080224;28;20464;-68
2021/10/10 09:33:57;;;;;;;24.58;14.40;;;10.60;1.00;;;;;;5072650;28;20047;-67
2021/10/10 09:36:30;;;;;;;19.30;13.30;;;10.90;1.00;;;;;;5079526;28;20040;-66
2021/10/10 09:39:02;;;;;;;21.45;13.52;;;11.10;1.00;;;;;;5080905;28;20663;-67
2021/10/10 09:41:34;;;;;;;20.15;12.75;;;11.30;1.00;;;;;;5077337;28;20067;-67
2021/10/10 09:44:11;;;;;;;17.98;13.35;;;11.20;1.00;;;;;;5074410;28;20557;-67
2021/10/10 09:46:42;;;;;;;25.52;12.52;;;11.40;1.00;;;;;;5078782;28;20093;-67
2021/10/10 09:49:21;;;;;;;19.38;13.45;;;11.50;1.00;;;;;;5078704;28;20131;-67
2021/10/10 09:51:51;;;;;;;19.92;13.55;;;11.50;1.00;;;;;;5074608;28;20136;-67
2021/10/10 09:54:19;;;;;;;21.73;13.02;;;11.50;1.00;;;;;;5080645;28;20120;-67
2021/10/10 09:57:05;;;;;;;20.23;13.23;;;11.70;1.00;;;;;;5072750;28;20516;-68
2021/10/10 09:59:34;;;;;;;22.23;13.88;;;11.60;1.00;;;;;;5071242;28;20053;-67
2021/10/10 10:02:02;;;;;;;20.23;13.50;;;11.20;1.00;;;;;;5080739;28;20102;-67
2021/10/10 10:04:47;;;;;;;19.20;13.82;;;11.60;1.00;;;;;;5076602;28;20050;-68
2021/10/10 10:07:19;;;;;;;25.92;13.77;;;11.70;1.00;;;;;;5079625;28;20097;-68
2021/10/10 10:09:54;;;;;;;20.55;13.60;;;11.50;1.00;;;;;;5085820;28;20048;-67
2021/10/10 10:12:24;;;;;;;19.98;12.70;;;11.50;1.00;;;;;;5077980;28;20086;-69
2021/10/10 10:14:56;;;;;;;24.85;13.20;;;11.40;1.00;;;;;;5078513;28;20127;-68
2021/10/10 10:17:30;;;;;;;19.48;13.15;;;11.40;1.00;;;;;;5082809;28;20113;-68
2021/10/10 10:20:01;;;;;;;21.23;13.48;;;11.60;1.00;;;;;;5078074;28;20692;-67
2021/10/10 10:22:34;;;;;;;19.08;12.88;;;11.70;1.00;;;;;;5082938;28;20048;-67
2021/10/10 10:25:03;;;;;;;21.47;12.83;;;12.10;1.00;;;;;;5080189;28;20054;-67
2021/10/10 10:27:32;;;;;;;20.20;12.52;;;11.80;1.00;;;;;;5077138;28;20044;-66
2021/10/10 10:30:02;;;;;;;19.88;13.98;;;12.00;1.00;;;;;;5082948;28;20641;-68
2021/10/10 10:32:33;;;;;;;20.17;13.10;;;12.10;1.00;;;;;;5074032;28;20076;-67
2021/10/10 10:35:03;;;;;;;22.92;13.60;;;12.20;1.00;;;;;;5054552;28;20044;-67
2021/10/10 10:37:56;;;;;;;19.30;13.13;;;12.20;1.00;;;;;;5073451;28;20048;-67
2021/10/10 10:40:36;;;;;;;18.75;12.15;;;12.00;1.00;;;;;;5083450;28;20122;-67
2021/10/10 10:43:11;;;;;;;18.35;12.73;;;12.30;1.00;;;;;;5078442;28;20044;-66
2021/10/10 10:45:48;;;;;;;18.73;13.15;;;12.50;1.00;;;;;;5082587;28;20036;-67
2021/10/10 10:48:37;;;;;;;17.23;12.32;;;12.30;1.00;;;;;;5084683;28;20059;-67
2021/10/10 10:51:23;;;;;;;19.90;13.45;;;12.60;1.00;;;;;;5072430;28;20052;-67
2021/10/10 10:53:52;;;;;;;18.63;13.15;;;12.80;1.00;;;;;;5073654;28;20292;-66
2021/10/10 10:56:28;;;;;;;20.50;13.63;;;12.60;1.00;;;;;;5079032;27;20138;-66
2021/10/10 10:59:00;;;;;;;19.23;12.40;;;12.70;1.00;;;;;;5070810;28;20055;-67
2021/10/10 11:01:59;;;;;;;20.50;12.98;;;12.60;1.00;;;;;;5079079;28;20054;-67
2021/10/10 11:04:29;;;;;;;19.65;12.52;;;12.70;1.00;;;;;;5038865;28;20576;-67
2021/10/10 11:06:59;;;;;;;20.20;12.57;;;12.50;1.00;;;;;;5069026;28;20167;-67
2021/10/10 11:09:44;;;;;;;;;;;12.70;1.00;;;;;;5070811;28;20055;-68
2021/10/10 11:12:12;;;;;;;17.13;11.95;;;12.50;1.00;;;;;;5074660;28;20193;-67
2021/10/10 11:14:42;;;;;;;23.52;12.40;;;12.60;1.00;;;;;;5068351;28;20047;-67
2021/10/10 11:17:15;;;;;;;20.42;12.43;;;12.80;1.00;;;;;;5064047;28;20276;-67
2021/10/10 11:19:43;;;;;;;18.20;11.45;;;13.00;1.00;;;;;;5070909;28;20056;-67
2021/10/10 11:22:17;;;;;;;16.00;11.43;;;13.20;1.00;;;;;;5066651;28;20048;-66
2021/10/10 11:24:48;;;;;;;20.92;12.63;;;12.80;1.00;;;;;;5069443;28;20149;-66
2021/10/10 11:27:20;;;;;;;20.80;12.02;;;13.10;1.00;;;;;;5070560;28;20215;-67
2021/10/10 11:29:52;;;;;;;19.58;11.68;;;13.10;1.00;;;;;;5073376;28;20044;-64
2021/10/10 11:32:20;;;;;;;17.33;11.80;;;13.30;1.00;;;;;;5070288;28;20179;-62
2021/10/10 11:34:57;;;;;;;19.20;12.18;;;13.20;1.00;;;;;;5070379;28;20063;-60
2021/10/10 11:37:25;;;;;;;19.13;12.45;;;13.10;1.00;;;;;;5066190;28;20205;-60
2021/10/10 11:40:10;;;;;;;18.02;11.18;;;13.20;1.00;;;;;;5069644;28;20051;-59
2021/10/10 11:42:41;;;;;;;16.20;10.98;;;13.10;1.00;;;;;;5069425;28;20062;-59
2021/10/10 11:45:12;;;;;;;17.20;11.25;;;13.10;1.00;;;;;;5066819;28;20048;-60
2021/10/10 11:47:57;;;;;;;15.32;10.27;;;13.40;1.00;;;;;;5071850;28;20524;-59
2021/10/10 11:50:34;;;;;;;18.23;10.27;;;13.50;1.00;;;;;;5071276;28;20059;-60
2021/10/10 11:53:03;;;;;;;14.63;10.68;;;13.60;1.00;;;;;;5066778;28;20912;-59
2021/10/10 11:55:36;;;;;;;17.80;11.05;;;13.60;1.00;;;;;;5071668;28;20093;-61
2021/10/10 11:58:05;;;;;;;14.15;10.57;;;13.60;1.00;;;;;;5067409;28;20514;-60
2021/10/10 12:00:38;;;;;;;16.52;10.40;;;13.60;1.00;;;;;;5068036;28;20056;-60
2021/10/10 12:03:10;;;;;;;16.40;10.38;;;13.80;1.00;;;;;;5074566;28;20690;-59
2021/10/10 12:05:42;;;;;;;16.10;10.48;;;13.70;1.00;;;;;;5073531;28;20063;-59
2021/10/10 12:08:17;;;;;;;;;;;13.90;1.00;;;;;;5068035;28;20167;-60
2021/10/10 12:10:48;;;;;;;16.80;10.85;;;13.80;1.00;;;;;;5070585;28;19985;-60
2021/10/10 12:13:21;;;;;;;14.18;10.38;;;13.70;1.00;;;;;;5067397;28;20141;-59
2021/10/10 12:16:00;;;;;;;15.65;10.75;;;13.80;1.00;;;;;;5064810;28;20040;-59
2021/10/10 12:18:34;;;;;;;15.68;10.85;;;13.80;1.00;;;;;;5068656;28;20500;-60
2021/10/10 12:21:22;;;;;;;17.67;10.13;;;14.10;1.00;;;;;;5069998;28;20075;-59
2021/10/10 12:24:06;;;;;;;14.43;9.77;;;14.00;1.00;;;;;;5064957;28;20056;-60
2021/10/10 12:26:47;;;;;;;16.55;10.75;;;14.00;1.00;;;;;;5064524;28;20399;-60
2021/10/10 12:29:27;;;;;;;17.58;10.55;;;14.00;1.00;;;;;;5069182;28;20056;-60
2021/10/10 12:32:19;;;;;;;17.10;10.27;;;14.10;1.00;;;;;;5065561;28;20055;-60
2021/10/10 12:35:08;;;;;;;17.17;10.20;;;13.90;1.00;;;;;;5066824;28;20145;-59
2021/10/10 12:37:37;;;;;;;15.55;10.32;;;14.10;1.00;;;;;;5066065;28;20071;-59
2021/10/10 12:40:07;;;;;;;16.13;10.57;;;14.10;1.00;;;;;;5069081;28;20071;-60
2021/10/10 12:42:50;;;;;;;14.55;10.43;;;14.00;1.00;;;;;;5066055;28;20396;-60
2021/10/10 12:45:27;;;;;;;16.30;11.05;;;14.20;1.00;;;;;;5066938;28;20078;-62
2021/10/10 12:48:08;;;;;;;15.57;10.40;;;14.10;1.00;;;;;;5069124;28;20043;-59
2021/10/10 12:50:51;;;;;;;13.77;10.13;;;14.00;1.00;;;;;;5066313;28;20720;-59
2021/10/10 12:53:30;;;;;;;15.57;9.30;;;14.10;1.00;;;;;;5068492;28;20135;-60
2021/10/10 12:56:12;;;;;;;16.33;10.75;;;14.20;1.00;;;;;;5070700;28;20783;-60
2021/10/10 12:58:48;;;;;;;13.65;10.18;;;14.20;1.00;;;;;;5068244;28;20117;-60
2021/10/10 13:01:21;;;;;;;16.10;9.55;;;14.10;1.00;;;;;;5067195;28;20479;-59
2021/10/10 13:04:11;;;;;;;14.25;9.52;;;14.20;1.00;;;;;;5051133;28;20044;-59